createdAt,value
2023-04-27T00:00:02.807Z,95059.00
2023-04-27T00:01:02.802Z,95059.00
2023-04-27T00:02:02.904Z,95055.00
2023-04-27T00:03:03.096Z,95055.00
2023-04-27T00:04:03.056Z,95053.00
2023-04-27T00:05:03.126Z,95049.00
2023-04-27T00:06:02.960Z,95049.00
2023-04-27T00:07:02.981Z,95051.00
2023-04-27T00:08:03.000Z,95051.00
2023-04-27T00:09:03.046Z,95049.00
2023-04-27T00:10:03.048Z,95049.00
2023-04-27T00:11:03.080Z,95048.00
2023-04-27T00:12:03.163Z,95048.00
2023-04-27T00:13:03.132Z,95044.00
2023-04-27T00:14:03.116Z,95046.00
2023-04-27T00:15:03.133Z,95044.00
2023-04-27T00:16:03.292Z,95044.00
2023-04-27T00:17:03.172Z,95046.00
2023-04-27T00:18:03.300Z,95044.00
2023-04-27T00:19:03.246Z,95046.00
2023-04-27T00:20:03.257Z,95044.00
2023-04-27T00:21:03.279Z,95046.00
2023-04-27T00:22:03.314Z,95046.00
2023-04-27T00:23:03.334Z,95046.00
2023-04-27T00:24:03.389Z,95046.00
2023-04-27T00:25:03.387Z,95044.00
2023-04-27T00:26:03.409Z,95042.00
2023-04-27T00:27:03.456Z,95040.00
2023-04-27T00:28:03.449Z,95042.00
2023-04-27T00:29:03.534Z,95042.00
2023-04-27T00:30:03.506Z,95044.00
2023-04-27T00:31:03.641Z,95042.00
2023-04-27T00:32:03.629Z,95038.00
2023-04-27T00:33:03.650Z,95040.00
2023-04-27T00:34:03.621Z,95040.00
2023-04-27T00:35:03.621Z,95040.00
2023-04-27T00:36:03.674Z,95042.00
2023-04-27T00:37:03.651Z,95042.00
2023-04-27T00:38:03.708Z,95042.00
2023-04-27T00:39:03.710Z,95042.00
2023-04-27T00:40:03.754Z,95040.00
2023-04-27T00:41:03.788Z,95036.00
2023-04-27T00:42:03.819Z,95038.00
2023-04-27T00:43:03.860Z,95034.00
2023-04-27T00:44:03.907Z,95032.00
2023-04-27T00:45:03.938Z,95036.00
2023-04-27T00:46:04.012Z,95032.00
2023-04-27T00:47:04.061Z,95034.00
2023-04-27T00:48:04.154Z,95034.00
2023-04-27T00:49:04.132Z,95036.00
2023-04-27T00:50:04.125Z,95036.00
2023-04-27T00:51:04.175Z,95036.00
2023-04-27T00:52:04.207Z,95038.00
2023-04-27T00:53:04.261Z,95036.00
2023-04-27T00:54:04.310Z,95038.00
2023-04-27T00:55:04.393Z,95036.00
2023-04-27T00:56:04.410Z,95032.00
2023-04-27T00:57:04.444Z,95032.00
2023-04-27T00:58:04.494Z,95032.00
2023-04-27T00:59:04.549Z,95030.00
2023-04-27T01:00:04.598Z,95030.00
2023-04-27T01:01:04.667Z,95030.00
2023-04-27T01:02:04.685Z,95030.00
2023-04-27T01:03:04.862Z,95030.00
2023-04-27T01:04:05.029Z,95030.00
2023-04-27T01:05:04.809Z,95028.00
2023-04-27T01:06:04.938Z,95032.00
2023-04-27T01:07:04.888Z,95036.00
2023-04-27T01:08:04.929Z,95032.00
2023-04-27T01:09:04.991Z,95034.00
2023-04-27T01:10:05.054Z,95032.00
2023-04-27T01:11:05.094Z,95034.00
2023-04-27T01:12:05.116Z,95032.00
2023-04-27T01:13:05.148Z,95032.00
2023-04-27T01:14:05.165Z,95034.00
2023-04-27T01:15:05.245Z,95032.00
2023-04-27T01:16:05.263Z,95034.00
2023-04-27T01:17:05.362Z,95034.00
2023-04-27T01:18:05.408Z,95036.00
2023-04-27T01:19:05.451Z,95032.00
2023-04-27T01:20:05.479Z,95032.00
2023-04-27T01:21:05.509Z,95030.00
2023-04-27T01:22:05.551Z,95032.00
2023-04-27T01:23:05.576Z,95032.00
2023-04-27T01:24:05.630Z,95032.00
2023-04-27T01:25:05.684Z,95032.00
2023-04-27T01:26:05.696Z,95030.00
2023-04-27T01:27:05.744Z,95030.00
2023-04-27T01:28:05.827Z,95026.00
2023-04-27T01:29:05.823Z,95026.00
2023-04-27T01:30:05.882Z,95026.00
2023-04-27T01:31:05.915Z,95026.00
2023-04-27T01:32:05.957Z,95026.00
2023-04-27T01:33:06.009Z,95028.00
2023-04-27T01:34:06.016Z,95030.00
2023-04-27T01:35:06.051Z,95028.00
2023-04-27T01:36:06.087Z,95030.00
2023-04-27T01:37:06.164Z,95030.00
2023-04-27T01:38:06.175Z,95030.00
2023-04-27T01:39:06.194Z,95028.00
2023-04-27T01:40:06.273Z,95024.00
2023-04-27T01:41:06.278Z,95024.00
2023-04-27T01:42:06.332Z,95026.00
2023-04-27T01:43:06.377Z,95024.00
2023-04-27T01:44:06.388Z,95024.00
2023-04-27T01:45:06.458Z,95024.00
2023-04-27T01:46:06.519Z,95024.00
2023-04-27T01:47:06.529Z,95024.00
2023-04-27T01:48:06.643Z,95022.00
2023-04-27T01:49:06.600Z,95026.00
2023-04-27T01:50:06.664Z,95024.00
2023-04-27T01:51:06.687Z,95022.00
2023-04-27T01:52:06.732Z,95024.00
2023-04-27T01:53:06.758Z,95022.00
2023-04-27T01:54:06.814Z,95022.00
2023-04-27T01:55:06.828Z,95024.00
2023-04-27T01:56:06.903Z,95026.00
2023-04-27T01:57:06.976Z,95026.00
2023-04-27T01:58:06.978Z,95024.00
2023-04-27T01:59:07.025Z,95022.00
2023-04-27T02:00:07.036Z,95022.00
2023-04-27T02:01:07.072Z,95022.00
2023-04-27T02:02:07.239Z,95024.00
2023-04-27T02:03:07.353Z,95024.00
2023-04-27T02:04:07.323Z,95026.00
2023-04-27T02:05:07.218Z,95028.00
2023-04-27T02:06:07.284Z,95030.00
2023-04-27T02:07:07.292Z,95028.00
2023-04-27T02:08:07.357Z,95028.00
2023-04-27T02:09:07.406Z,95024.00
2023-04-27T02:10:07.457Z,95024.00
2023-04-27T02:11:07.470Z,95020.00
2023-04-27T02:12:07.487Z,95020.00
2023-04-27T02:13:07.602Z,95022.00
2023-04-27T02:14:07.580Z,95020.00
2023-04-27T02:15:07.637Z,95022.00
2023-04-27T02:16:07.741Z,95026.00
2023-04-27T02:17:07.691Z,95028.00
2023-04-27T02:18:07.755Z,95030.00
2023-04-27T02:19:07.789Z,95030.00
2023-04-27T02:20:07.829Z,95030.00
2023-04-27T02:21:07.847Z,95030.00
2023-04-27T02:22:07.886Z,95030.00
2023-04-27T02:23:07.920Z,95030.00
2023-04-27T02:24:07.969Z,95026.00
2023-04-27T02:25:07.998Z,95026.00
2023-04-27T02:26:08.070Z,95026.00
2023-04-27T02:27:08.116Z,95030.00
2023-04-27T02:28:08.659Z,95036.00
2023-04-27T02:29:08.203Z,95040.00
2023-04-27T02:30:08.213Z,95042.00
2023-04-27T02:31:08.395Z,95044.00
2023-04-27T02:32:08.299Z,95044.00
2023-04-27T02:33:08.461Z,95044.00
2023-04-27T02:34:08.371Z,95042.00
2023-04-27T02:35:08.416Z,95042.00
2023-04-27T02:36:08.465Z,95042.00
2023-04-27T02:37:08.478Z,95042.00
2023-04-27T02:38:08.565Z,95044.00
2023-04-27T02:39:08.605Z,95046.00
2023-04-27T02:40:08.592Z,95048.00
2023-04-27T02:41:08.658Z,95046.00
2023-04-27T02:42:08.722Z,95044.00
2023-04-27T02:43:08.755Z,95040.00
2023-04-27T02:44:08.825Z,95038.00
2023-04-27T02:45:08.845Z,95036.00
2023-04-27T02:46:08.935Z,95036.00
2023-04-27T02:47:08.992Z,95040.00
2023-04-27T02:48:09.059Z,95042.00
2023-04-27T02:49:09.038Z,95038.00
2023-04-27T02:50:09.064Z,95040.00
2023-04-27T02:51:09.125Z,95040.00
2023-04-27T02:52:09.167Z,95042.00
2023-04-27T02:53:09.206Z,95040.00
2023-04-27T02:54:09.225Z,95038.00
2023-04-27T02:55:09.289Z,95038.00
2023-04-27T02:56:09.370Z,95038.00
2023-04-27T02:57:09.364Z,95040.00
2023-04-27T02:58:09.440Z,95046.00
2023-04-27T02:59:09.492Z,95046.00
2023-04-27T03:00:09.521Z,95048.00
2023-04-27T03:01:09.606Z,95048.00
2023-04-27T03:02:09.603Z,95048.00
2023-04-27T03:03:09.745Z,95048.00
2023-04-27T03:04:09.890Z,95044.00
2023-04-27T03:05:09.726Z,95044.00
2023-04-27T03:06:09.772Z,95042.00
2023-04-27T03:07:09.788Z,95040.00
2023-04-27T03:08:09.855Z,95040.00
2023-04-27T03:09:09.935Z,95036.00
2023-04-27T03:10:09.958Z,95036.00
2023-04-27T03:11:09.955Z,95038.00
2023-04-27T03:12:10.030Z,95040.00
2023-04-27T03:13:10.029Z,95036.00
2023-04-27T03:14:10.078Z,95038.00
2023-04-27T03:15:10.117Z,95036.00
2023-04-27T03:16:10.205Z,95038.00
2023-04-27T03:17:10.206Z,95036.00
2023-04-27T03:18:10.308Z,95038.00
2023-04-27T03:19:10.258Z,95042.00
2023-04-27T03:20:10.330Z,95044.00
2023-04-27T03:21:10.329Z,95044.00
2023-04-27T03:22:10.401Z,95046.00
2023-04-27T03:23:10.444Z,95046.00
2023-04-27T03:24:10.450Z,95048.00
2023-04-27T03:25:10.511Z,95048.00
2023-04-27T03:26:10.537Z,95048.00
2023-04-27T03:27:10.564Z,95048.00
2023-04-27T03:28:10.634Z,95051.00
2023-04-27T03:29:10.689Z,95053.00
2023-04-27T03:30:11.677Z,95051.00
2023-04-27T03:31:10.759Z,95051.00
2023-04-27T03:32:10.894Z,95048.00
2023-04-27T03:33:11.185Z,95049.00
2023-04-27T03:34:10.943Z,95049.00
2023-04-27T03:35:10.955Z,95048.00
2023-04-27T03:36:11.025Z,95049.00
2023-04-27T03:37:11.071Z,95051.00
2023-04-27T03:38:11.126Z,95053.00
2023-04-27T03:39:11.367Z,95053.00
2023-04-27T03:40:11.254Z,95059.00
2023-04-27T03:41:11.280Z,95055.00
2023-04-27T03:42:11.351Z,95057.00
2023-04-27T03:43:11.387Z,95055.00
2023-04-27T03:44:11.442Z,95059.00
2023-04-27T03:45:11.499Z,95057.00
2023-04-27T03:46:11.583Z,95061.00
2023-04-27T03:47:11.579Z,95061.00
2023-04-27T03:48:11.633Z,95061.00
2023-04-27T03:49:11.763Z,95061.00
2023-04-27T03:50:11.757Z,95065.00
2023-04-27T03:51:11.799Z,95065.00
2023-04-27T03:52:11.838Z,95067.00
2023-04-27T03:53:11.914Z,95067.00
2023-04-27T03:54:11.956Z,95065.00
2023-04-27T03:55:11.967Z,95065.00
2023-04-27T03:56:12.031Z,95067.00
2023-04-27T03:57:12.115Z,95065.00
2023-04-27T03:58:12.154Z,95069.00
2023-04-27T03:59:12.404Z,95069.00
2023-04-27T04:00:12.281Z,95071.00
2023-04-27T04:01:12.350Z,95075.00
2023-04-27T04:02:12.358Z,95075.00
2023-04-27T04:03:12.604Z,95077.00
2023-04-27T04:04:12.626Z,95079.00
2023-04-27T04:05:12.701Z,95083.00
2023-04-27T04:06:12.548Z,95083.00
2023-04-27T04:07:12.606Z,95085.00
2023-04-27T04:08:12.654Z,95087.00
2023-04-27T04:09:13.129Z,95089.00
2023-04-27T04:10:12.747Z,95091.00
2023-04-27T04:11:12.787Z,95095.00
2023-04-27T04:12:12.830Z,95098.00
2023-04-27T04:13:12.890Z,95095.00
2023-04-27T04:14:12.942Z,95096.00
2023-04-27T04:15:12.986Z,95102.00
2023-04-27T04:16:13.027Z,95100.00
2023-04-27T04:17:13.084Z,95102.00
2023-04-27T04:18:13.192Z,95104.00
2023-04-27T04:19:13.681Z,95106.00
2023-04-27T04:20:13.217Z,95106.00
2023-04-27T04:21:13.299Z,95110.00
2023-04-27T04:22:13.295Z,95112.00
2023-04-27T04:23:13.385Z,95116.00
2023-04-27T04:24:13.403Z,95118.00
2023-04-27T04:25:13.516Z,95122.00
2023-04-27T04:26:13.521Z,95122.00
2023-04-27T04:27:13.586Z,95124.00
2023-04-27T04:28:13.631Z,95124.00
2023-04-27T04:29:13.892Z,95124.00
2023-04-27T04:30:13.681Z,95122.00
2023-04-27T04:31:13.818Z,95126.00
2023-04-27T04:32:13.824Z,95128.00
2023-04-27T04:33:13.861Z,95130.00
2023-04-27T04:34:13.985Z,95132.00
2023-04-27T04:35:13.923Z,95134.00
2023-04-27T04:36:14.003Z,95132.00
2023-04-27T04:37:14.031Z,95130.00
2023-04-27T04:38:14.165Z,95136.00
2023-04-27T04:39:14.306Z,95132.00
2023-04-27T04:40:14.208Z,95136.00
2023-04-27T04:41:14.263Z,95138.00
2023-04-27T04:42:14.278Z,95138.00
2023-04-27T04:43:14.361Z,95138.00
2023-04-27T04:44:14.390Z,95138.00
2023-04-27T04:45:14.420Z,95142.00
2023-04-27T04:46:14.504Z,95142.00
2023-04-27T04:47:14.548Z,95151.00
2023-04-27T04:48:14.600Z,95157.00
2023-04-27T04:49:14.788Z,95153.00
2023-04-27T04:50:14.750Z,95157.00
2023-04-27T04:51:14.715Z,95157.00
2023-04-27T04:52:14.778Z,95157.00
2023-04-27T04:53:14.827Z,95157.00
2023-04-27T04:54:14.835Z,95159.00
2023-04-27T04:55:14.907Z,95159.00
2023-04-27T04:56:14.951Z,95161.00
2023-04-27T04:57:15.000Z,95165.00
2023-04-27T04:58:15.077Z,95165.00
2023-04-27T04:59:15.200Z,95167.00
2023-04-27T05:00:15.147Z,95167.00
2023-04-27T05:01:15.277Z,95167.00
2023-04-27T05:02:15.265Z,95167.00
2023-04-27T05:03:15.444Z,95163.00
2023-04-27T05:04:15.593Z,95161.00
2023-04-27T05:05:15.408Z,95161.00
2023-04-27T05:06:15.449Z,95161.00
2023-04-27T05:07:17.495Z,95161.00
2023-04-27T05:08:15.520Z,95163.00
2023-04-27T05:09:15.546Z,95165.00
2023-04-27T05:10:15.490Z,95169.00
2023-04-27T05:11:15.485Z,95171.00
2023-04-27T05:12:15.457Z,95171.00
2023-04-27T05:13:15.469Z,95173.00
2023-04-27T05:14:15.447Z,95173.00
2023-04-27T05:15:15.462Z,95173.00
2023-04-27T05:16:15.565Z,95177.00
2023-04-27T05:17:15.438Z,95179.00
2023-04-27T05:18:15.463Z,95187.00
2023-04-27T05:19:15.648Z,95191.00
2023-04-27T05:20:16.073Z,95193.00
2023-04-27T05:21:15.386Z,95191.00
2023-04-27T05:22:15.421Z,95195.00
2023-04-27T05:23:15.387Z,95193.00
2023-04-27T05:24:15.390Z,95195.00
2023-04-27T05:25:15.391Z,95195.00
2023-04-27T05:26:15.361Z,95195.00
2023-04-27T05:27:15.346Z,95195.00
2023-04-27T05:28:15.379Z,95193.00
2023-04-27T05:29:15.815Z,95191.00
2023-04-27T05:30:15.336Z,95193.00
2023-04-27T05:31:15.424Z,95193.00
2023-04-27T05:32:15.327Z,95189.00
2023-04-27T05:33:15.362Z,95193.00
2023-04-27T05:34:15.407Z,95195.00
2023-04-27T05:35:15.477Z,95195.00
2023-04-27T05:36:15.530Z,95199.00
2023-04-27T05:37:15.542Z,95195.00
2023-04-27T05:38:15.607Z,95199.00
2023-04-27T05:39:15.936Z,95197.00
2023-04-27T05:40:15.663Z,95202.00
2023-04-27T05:41:15.705Z,95200.00
2023-04-27T05:42:15.782Z,95204.00
2023-04-27T05:43:15.816Z,95202.00
2023-04-27T05:44:15.873Z,95202.00
2023-04-27T05:45:15.914Z,95204.00
2023-04-27T05:46:16.009Z,95204.00
2023-04-27T05:47:15.964Z,95206.00
2023-04-27T05:48:16.031Z,95204.00
2023-04-27T05:49:16.131Z,95206.00
2023-04-27T05:50:16.098Z,95206.00
2023-04-27T05:51:16.131Z,95206.00
2023-04-27T05:52:16.170Z,95212.00
2023-04-27T05:53:16.239Z,95210.00
2023-04-27T05:54:16.247Z,95212.00
2023-04-27T05:55:16.303Z,95210.00
2023-04-27T05:56:16.335Z,95208.00
2023-04-27T05:57:16.372Z,95208.00
2023-04-27T05:58:16.407Z,95206.00
2023-04-27T05:59:16.665Z,95210.00
2023-04-27T06:00:16.477Z,95210.00
2023-04-27T06:01:16.500Z,95210.00
2023-04-27T06:02:16.687Z,95210.00
2023-04-27T06:03:16.717Z,95208.00
2023-04-27T06:04:16.847Z,95210.00
2023-04-27T06:05:16.717Z,95208.00
2023-04-27T06:06:16.682Z,95204.00
2023-04-27T06:07:16.729Z,95208.00
2023-04-27T06:08:16.756Z,95206.00
2023-04-27T06:09:16.842Z,95206.00
2023-04-27T06:10:16.845Z,95208.00
2023-04-27T06:11:16.889Z,95208.00
2023-04-27T06:12:16.882Z,95214.00
2023-04-27T06:13:16.947Z,95214.00
2023-04-27T06:14:16.968Z,95212.00
2023-04-27T06:15:16.996Z,95216.00
2023-04-27T06:16:17.072Z,95214.00
2023-04-27T06:17:17.041Z,95220.00
2023-04-27T06:18:17.150Z,95218.00
2023-04-27T06:19:17.115Z,95220.00
2023-04-27T06:20:17.145Z,95222.00
2023-04-27T06:21:17.177Z,95222.00
2023-04-27T06:22:17.216Z,95224.00
2023-04-27T06:23:17.237Z,95226.00
2023-04-27T06:24:17.255Z,95226.00
2023-04-27T06:25:17.365Z,95226.00
2023-04-27T06:26:17.319Z,95226.00
2023-04-27T06:27:17.342Z,95226.00
2023-04-27T06:28:17.369Z,95224.00
2023-04-27T06:29:17.381Z,95226.00
2023-04-27T06:30:17.410Z,95226.00
2023-04-27T06:31:17.485Z,95222.00
2023-04-27T06:32:17.470Z,95224.00
2023-04-27T06:33:17.510Z,95224.00
2023-04-27T06:34:17.518Z,95220.00
2023-04-27T06:35:17.529Z,95224.00
2023-04-27T06:36:17.548Z,95226.00
2023-04-27T06:37:17.577Z,95224.00
2023-04-27T06:38:17.598Z,95224.00
2023-04-27T06:39:17.675Z,95222.00
2023-04-27T06:40:17.643Z,95226.00
2023-04-27T06:41:17.713Z,95224.00
2023-04-27T06:42:17.707Z,95224.00
2023-04-27T06:43:17.724Z,95224.00
2023-04-27T06:44:17.766Z,95224.00
2023-04-27T06:45:17.780Z,95226.00
2023-04-27T06:46:17.896Z,95228.00
2023-04-27T06:47:17.807Z,95232.00
2023-04-27T06:48:17.983Z,95232.00
2023-04-27T06:49:17.861Z,95232.00
2023-04-27T06:50:17.837Z,95232.00
2023-04-27T06:51:17.885Z,95238.00
2023-04-27T06:52:17.925Z,95238.00
2023-04-27T06:53:18.246Z,95240.00
2023-04-27T06:54:17.908Z,95238.00
2023-04-27T06:55:17.961Z,95244.00
2023-04-27T06:56:17.957Z,95244.00
2023-04-27T06:57:17.933Z,95242.00
2023-04-27T06:58:17.917Z,95242.00
2023-04-27T06:59:18.299Z,95240.00
2023-04-27T07:00:17.957Z,95242.00
2023-04-27T07:01:17.957Z,95244.00
2023-04-27T07:02:17.955Z,95244.00
2023-04-27T07:03:18.092Z,95246.00
2023-04-27T07:04:18.061Z,95242.00
2023-04-27T07:05:17.926Z,95238.00
2023-04-27T07:06:17.954Z,95242.00
2023-04-27T07:07:17.933Z,95240.00
2023-04-27T07:08:17.945Z,95242.00
2023-04-27T07:09:27.025Z,95240.00
2023-04-27T07:10:18.934Z,95242.00
2023-04-27T07:11:17.883Z,95240.00
2023-04-27T07:12:17.878Z,95238.00
2023-04-27T07:13:17.890Z,95242.00
2023-04-27T07:14:17.891Z,95238.00
2023-04-27T07:15:17.876Z,95236.00
2023-04-27T07:16:17.887Z,95240.00
2023-04-27T07:17:18.094Z,95236.00
2023-04-27T07:18:18.254Z,95236.00
2023-04-27T07:19:17.870Z,95238.00
2023-04-27T07:20:17.850Z,95238.00
2023-04-27T07:21:17.846Z,95238.00
2023-04-27T07:22:17.830Z,95236.00
2023-04-27T07:23:17.856Z,95234.00
2023-04-27T07:24:17.827Z,95236.00
2023-04-27T07:25:17.830Z,95232.00
2023-04-27T07:26:17.811Z,95232.00
2023-04-27T07:27:17.811Z,95232.00
2023-04-27T07:28:17.782Z,95234.00
2023-04-27T07:30:17.902Z,95232.00
2023-04-27T07:31:17.846Z,95230.00
2023-04-27T07:32:17.826Z,95230.00
2023-04-27T07:33:18.281Z,95230.00
2023-04-27T07:34:17.728Z,95234.00
2023-04-27T07:35:17.736Z,95232.00
2023-04-27T07:36:17.719Z,95236.00
2023-04-27T07:37:17.727Z,95238.00
2023-04-27T07:38:17.706Z,95240.00
2023-04-27T07:39:17.714Z,95238.00
2023-04-27T07:40:17.739Z,95242.00
2023-04-27T07:41:17.688Z,95240.00
2023-04-27T07:42:17.701Z,95244.00
2023-04-27T07:43:17.782Z,95242.00
2023-04-27T07:44:17.673Z,95244.00
2023-04-27T07:45:17.696Z,95242.00
2023-04-27T07:46:17.842Z,95244.00
2023-04-27T07:47:17.666Z,95244.00
2023-04-27T07:48:17.670Z,95250.00
2023-04-27T07:49:17.659Z,95248.00
2023-04-27T07:50:17.648Z,95246.00
2023-04-27T07:51:17.655Z,95248.00
2023-04-27T07:52:17.613Z,95248.00
2023-04-27T07:53:17.640Z,95250.00
2023-04-27T07:54:17.640Z,95250.00
2023-04-27T07:55:17.598Z,95251.00
2023-04-27T07:56:17.575Z,95250.00
2023-04-27T07:57:17.593Z,95251.00
2023-04-27T07:58:17.623Z,95251.00
2023-04-27T07:59:17.600Z,95253.00
2023-04-27T08:00:17.568Z,95259.00
2023-04-27T08:01:19.518Z,95257.00
2023-04-27T08:02:20.124Z,95257.00
2023-04-27T08:03:17.679Z,95259.00
2023-04-27T08:04:17.909Z,95259.00
2023-04-27T08:05:17.749Z,95257.00
2023-04-27T08:06:18.033Z,95263.00
2023-04-27T08:07:17.824Z,95263.00
2023-04-27T08:08:18.038Z,95263.00
2023-04-27T08:09:17.485Z,95259.00
2023-04-27T08:10:17.490Z,95261.00
2023-04-27T08:11:17.496Z,95261.00
2023-04-27T08:12:17.466Z,95261.00
2023-04-27T08:13:17.478Z,95261.00
2023-04-27T08:14:17.506Z,95261.00
2023-04-27T08:15:17.471Z,95259.00
2023-04-27T08:16:17.496Z,95263.00
2023-04-27T08:17:17.489Z,95261.00
2023-04-27T08:18:17.545Z,95261.00
2023-04-27T08:19:17.451Z,95261.00
2023-04-27T08:20:17.431Z,95263.00
2023-04-27T08:21:17.451Z,95261.00
2023-04-27T08:22:17.407Z,95259.00
2023-04-27T08:23:17.422Z,95259.00
2023-04-27T08:24:17.780Z,95257.00
2023-04-27T08:25:17.424Z,95257.00
2023-04-27T08:26:17.397Z,95263.00
2023-04-27T08:27:17.378Z,95259.00
2023-04-27T08:28:17.404Z,95259.00
2023-04-27T08:29:27.304Z,95261.00
2023-04-27T08:30:18.394Z,95261.00
2023-04-27T08:31:17.404Z,95261.00
2023-04-27T08:32:17.339Z,95261.00
2023-04-27T08:33:17.360Z,95261.00
2023-04-27T08:34:17.803Z,95263.00
2023-04-27T08:35:17.351Z,95259.00
2023-04-27T08:36:17.337Z,95257.00
2023-04-27T08:37:17.351Z,95253.00
2023-04-27T08:38:17.346Z,95253.00
2023-04-27T08:39:17.361Z,95255.00
2023-04-27T08:40:17.348Z,95257.00
2023-04-27T08:41:21.951Z,95253.00
2023-04-27T08:42:17.383Z,95253.00
2023-04-27T08:43:17.346Z,95253.00
2023-04-27T08:44:17.356Z,95251.00
2023-04-27T08:45:17.372Z,95250.00
2023-04-27T08:46:17.355Z,95250.00
2023-04-27T08:47:18.936Z,95250.00
2023-04-27T08:48:18.360Z,95251.00
2023-04-27T08:49:17.976Z,95250.00
2023-04-27T08:50:17.304Z,95250.00
2023-04-27T08:51:17.331Z,95251.00
2023-04-27T08:52:17.338Z,95250.00
2023-04-27T08:53:17.271Z,95250.00
2023-04-27T08:54:17.295Z,95250.00
2023-04-27T08:55:17.269Z,95250.00
2023-04-27T08:56:17.280Z,95251.00
2023-04-27T08:57:17.254Z,95250.00
2023-04-27T08:58:17.268Z,95251.00
2023-04-27T08:59:17.547Z,95253.00
2023-04-27T09:00:17.240Z,95253.00
2023-04-27T09:01:17.307Z,95257.00
2023-04-27T09:02:17.316Z,95257.00
2023-04-27T09:03:17.337Z,95257.00
2023-04-27T09:04:17.615Z,95253.00
2023-04-27T09:05:17.248Z,95250.00
2023-04-27T09:06:17.253Z,95251.00
2023-04-27T09:07:17.195Z,95248.00
2023-04-27T09:08:17.157Z,95251.00
2023-04-27T09:09:17.188Z,95253.00
2023-04-27T09:10:17.182Z,95251.00
2023-04-27T09:11:17.155Z,95253.00
2023-04-27T09:12:17.137Z,95251.00
2023-04-27T09:13:17.157Z,95251.00
2023-04-27T09:14:17.133Z,95251.00
2023-04-27T09:15:17.139Z,95250.00
2023-04-27T09:16:17.203Z,95248.00
2023-04-27T09:17:17.135Z,95246.00
2023-04-27T09:18:17.113Z,95246.00
2023-04-27T09:19:17.173Z,95242.00
2023-04-27T09:20:17.190Z,95242.00
2023-04-27T09:21:17.240Z,95244.00
2023-04-27T09:22:17.311Z,95242.00
2023-04-27T09:23:17.257Z,95244.00
2023-04-27T09:24:17.271Z,95240.00
2023-04-27T09:25:17.276Z,95236.00
2023-04-27T09:26:17.261Z,95234.00
2023-04-27T09:27:17.269Z,95234.00
2023-04-27T09:28:17.267Z,95228.00
2023-04-27T09:29:17.268Z,95230.00
2023-04-27T09:30:17.272Z,95226.00
2023-04-27T09:31:17.335Z,95228.00
2023-04-27T09:32:17.946Z,95230.00
2023-04-27T09:33:17.281Z,95236.00
2023-04-27T09:34:17.338Z,95232.00
2023-04-27T09:35:17.365Z,95230.00
2023-04-27T09:36:17.418Z,95228.00
2023-04-27T09:37:17.454Z,95228.00
2023-04-27T09:38:17.517Z,95226.00
2023-04-27T09:39:17.796Z,95224.00
2023-04-27T09:40:17.649Z,95220.00
2023-04-27T09:41:17.735Z,95220.00
2023-04-27T09:42:17.759Z,95218.00
2023-04-27T09:43:17.868Z,95218.00
2023-04-27T09:44:18.329Z,95212.00
2023-04-27T09:45:17.948Z,95214.00
2023-04-27T09:46:18.168Z,95214.00
2023-04-27T09:47:18.050Z,95212.00
2023-04-27T09:48:18.126Z,95212.00
2023-04-27T09:49:18.207Z,95210.00
2023-04-27T09:50:18.246Z,95208.00
2023-04-27T09:51:18.317Z,95208.00
2023-04-27T09:52:18.336Z,95206.00
2023-04-27T09:53:18.410Z,95204.00
2023-04-27T09:54:18.423Z,95206.00
2023-04-27T09:55:18.456Z,95202.00
2023-04-27T09:56:18.537Z,95199.00
2023-04-27T09:57:18.562Z,95195.00
2023-04-27T09:58:18.601Z,95193.00
2023-04-27T09:59:18.601Z,95189.00
2023-04-27T10:00:18.696Z,95189.00
2023-04-27T10:01:18.728Z,95189.00
2023-04-27T10:03:18.778Z,95191.00
2023-04-27T10:04:18.833Z,95189.00
2023-04-27T10:05:18.830Z,95187.00
2023-04-27T10:06:18.732Z,95183.00
2023-04-27T10:07:18.694Z,95183.00
2023-04-27T10:08:18.685Z,95185.00
2023-04-27T10:09:18.681Z,95183.00
2023-04-27T10:10:18.930Z,95185.00
2023-04-27T10:11:18.660Z,95179.00
2023-04-27T10:12:18.664Z,95175.00
2023-04-27T10:13:18.653Z,95175.00
2023-04-27T10:14:18.647Z,95177.00
2023-04-27T10:15:18.649Z,95175.00
2023-04-27T10:16:18.636Z,95175.00
2023-04-27T10:17:18.667Z,95171.00
2023-04-27T10:18:18.626Z,95169.00
2023-04-27T10:19:18.602Z,95165.00
2023-04-27T10:20:18.615Z,95165.00
2023-04-27T10:21:18.612Z,95161.00
2023-04-27T10:22:18.600Z,95161.00
2023-04-27T10:23:18.615Z,95157.00
2023-04-27T10:24:18.602Z,95153.00
2023-04-27T10:25:18.567Z,95159.00
2023-04-27T10:26:18.567Z,95159.00
2023-04-27T10:27:18.588Z,95157.00
2023-04-27T10:28:18.580Z,95157.00
2023-04-27T10:29:18.547Z,95151.00
2023-04-27T10:30:18.587Z,95151.00
2023-04-27T10:31:18.607Z,95153.00
2023-04-27T10:32:18.579Z,95153.00
2023-04-27T10:33:18.550Z,95151.00
2023-04-27T10:34:20.689Z,95149.00
2023-04-27T10:35:18.509Z,95153.00
2023-04-27T10:36:18.517Z,95153.00
2023-04-27T10:37:18.543Z,95140.00
2023-04-27T10:38:18.506Z,95138.00
2023-04-27T10:39:18.516Z,95138.00
2023-04-27T10:40:18.491Z,95134.00
2023-04-27T10:41:18.496Z,95132.00
2023-04-27T10:42:18.464Z,95130.00
2023-04-27T10:43:19.348Z,95126.00
2023-04-27T10:44:18.481Z,95130.00
2023-04-27T10:45:18.466Z,95128.00
2023-04-27T10:46:18.473Z,95124.00
2023-04-27T10:47:18.444Z,95120.00
2023-04-27T10:48:18.430Z,95120.00
2023-04-27T10:49:18.411Z,95122.00
2023-04-27T10:50:18.433Z,95124.00
2023-04-27T10:51:18.756Z,95120.00
2023-04-27T10:52:18.390Z,95120.00
2023-04-27T10:53:18.403Z,95126.00
2023-04-27T10:54:18.418Z,95122.00
2023-04-27T10:55:18.435Z,95120.00
2023-04-27T10:56:18.403Z,95116.00
2023-04-27T10:57:18.367Z,95112.00
2023-04-27T10:58:18.388Z,95108.00
2023-04-27T10:59:18.386Z,95112.00
2023-04-27T11:00:18.344Z,95112.00
2023-04-27T11:01:18.389Z,95114.00
2023-04-27T11:02:18.415Z,95108.00
2023-04-27T11:03:18.487Z,95106.00
2023-04-27T11:04:18.365Z,95104.00
2023-04-27T11:05:18.353Z,95104.00
2023-04-27T11:06:18.308Z,95102.00
2023-04-27T11:07:18.345Z,95106.00
2023-04-27T11:08:18.297Z,95100.00
2023-04-27T11:09:18.301Z,95095.00
2023-04-27T11:10:18.257Z,95100.00
2023-04-27T11:11:18.318Z,95102.00
2023-04-27T11:12:18.303Z,95102.00
2023-04-27T11:13:18.290Z,95100.00
2023-04-27T11:14:18.242Z,95095.00
2023-04-27T11:15:18.272Z,95096.00
2023-04-27T11:16:18.378Z,95100.00
2023-04-27T11:17:18.245Z,95098.00
2023-04-27T11:18:18.198Z,95098.00
2023-04-27T11:19:18.220Z,95095.00
2023-04-27T11:20:18.209Z,95098.00
2023-04-27T11:21:18.200Z,95096.00
2023-04-27T11:22:18.238Z,95095.00
2023-04-27T11:23:18.174Z,95095.00
2023-04-27T11:24:18.177Z,95098.00
2023-04-27T11:25:18.165Z,95098.00
2023-04-27T11:26:18.182Z,95096.00
2023-04-27T11:27:18.164Z,95098.00
2023-04-27T11:28:18.155Z,95095.00
2023-04-27T11:29:18.380Z,95093.00
2023-04-27T11:30:18.127Z,95096.00
2023-04-27T11:31:18.155Z,95096.00
2023-04-27T11:32:18.130Z,95096.00
2023-04-27T11:33:18.139Z,95100.00
2023-04-27T11:34:19.555Z,95104.00
2023-04-27T11:35:18.254Z,95100.00
2023-04-27T11:36:18.277Z,95098.00
2023-04-27T11:37:18.811Z,95100.00
2023-04-27T11:38:18.273Z,95100.00
2023-04-27T11:39:18.358Z,95098.00
2023-04-27T11:40:18.261Z,95098.00
2023-04-27T11:41:18.254Z,95098.00
2023-04-27T11:42:18.307Z,95093.00
2023-04-27T11:43:18.282Z,95093.00
2023-04-27T11:44:19.857Z,95091.00
2023-04-27T11:45:18.317Z,95089.00
2023-04-27T11:46:18.337Z,95085.00